sensor_id;sensor_type;location;lat;lon;timestamp;pressure;altitude;pressure_sealevel;temperature;humidity
7018;BME280;3549;42.162;24.726;2022-09-06T00:00:04;99499.94;;;14.97;100.00
7018;BME280;3549;42.162;24.726;2022-09-06T00:02:31;99899.53;;;17.29;100.00
7018;BME280;3549;42.162;24.726;2022-09-06T00:04:57;99935.41;;;17.63;100.00
7018;BME280;3549;42.162;24.726;2022-09-06T00:07:23;99433.47;;;14.58;100.00
7018;BME280;3549;42.162;24.726;2022-09-06T00:09:49;99677.63;;;16.17;100.00
7018;BME280;3549;42.162;24.726;2022-09-06T00:12:14;99947.50;;;17.68;100.00
7018;BME280;3549;42.162;24.726;2022-09-06T00:14:40;99942.69;;;17.82;100.00
7018;BME280;3549;42.162;24.726;2022-09-06T00:17:05;99873.78;;;17.23;100.00
7018;BME280;3549;42.162;24.726;2022-09-06T00:19:30;99830.06;;;17.14;100.00
7018;BME280;3549;42.162;24.726;2022-09-06T00:21:56;99336.31;;;14.18;100.00
7018;BME280;3549;42.162;24.726;2022-09-06T00:24:21;99678.78;;;16.30;100.00
7018;BME280;3549;42.162;24.726;2022-09-06T00:26:47;99948.00;;;17.91;100.00
7018;BME280;3549;42.162;24.726;2022-09-06T00:29:12;99593.47;;;15.90;100.00
7018;BME280;3549;42.162;24.726;2022-09-06T00:31:38;99542.88;;;15.74;100.00
7018;BME280;3549;42.162;24.726;2022-09-06T00:34:03;99685.19;;;16.47;100.00
7018;BME280;3549;42.162;24.726;2022-09-06T00:36:28;99802.66;;;17.08;100.00
7018;BME280;3549;42.162;24.726;2022-09-06T00:38:55;99964.19;;;17.89;100.00
7018;BME280;3549;42.162;24.726;2022-09-06T00:41:21;99583.75;;;15.76;100.00
7018;BME280;3549;42.162;24.726;2022-09-06T00:43:46;99626.75;;;15.93;100.00
7018;BME280;3549;42.162;24.726;2022-09-06T00:46:16;99954.94;;;17.95;100.00
7018;BME280;3549;42.162;24.726;2022-09-06T00:48:44;99744.63;;;16.71;100.00
7018;BME280;3549;42.162;24.726;2022-09-06T00:51:12;99955.69;;;17.90;100.00
7018;BME280;3549;42.162;24.726;2022-09-06T00:53:39;99951.28;;;17.84;100.00
7018;BME280;3549;42.162;24.726;2022-09-06T00:56:04;99450.28;;;14.83;100.00
7018;BME280;3549;42.162;24.726;2022-09-06T00:58:30;99584.66;;;15.47;100.00
7018;BME280;3549;42.162;24.726;2022-09-06T01:00:55;99796.13;;;16.53;100.00
7018;BME280;3549;42.162;24.726;2022-09-06T01:03:23;99447.50;;;14.46;100.00
7018;BME280;3549;42.162;24.726;2022-09-06T01:14:02;99946.50;;;17.63;100.00
7018;BME280;3549;42.162;24.726;2022-09-06T01:22:33;99951.94;;;17.43;100.00
7018;BME280;3549;42.162;24.726;2022-09-06T01:27:58;99957.22;;;17.49;100.00
7018;BME280;3549;42.162;24.726;2022-09-06T01:30:27;99869.91;;;17.04;100.00
7018;BME280;3549;42.162;24.726;2022-09-06T01:35:47;99901.56;;;17.07;100.00
7018;BME280;3549;42.162;24.726;2022-09-06T01:38:15;99347.91;;;13.79;100.00
7018;BME280;3549;42.162;24.726;2022-09-06T01:40:41;99812.47;;;16.59;100.00
7018;BME280;3549;42.162;24.726;2022-09-06T01:43:09;99932.56;;;17.20;100.00
7018;BME280;3549;42.162;24.726;2022-09-06T01:45:46;99924.31;;;17.30;100.00
7018;BME280;3549;42.162;24.726;2022-09-06T01:48:42;99915.00;;;17.33;100.00
7018;BME280;3549;42.162;24.726;2022-09-06T01:54:27;99918.41;;;17.34;100.00
7018;BME280;3549;42.162;24.726;2022-09-06T02:00:08;99819.28;;;16.92;100.00
7018;BME280;3549;42.162;24.726;2022-09-06T02:02:46;99801.97;;;16.81;100.00
7018;BME280;3549;42.162;24.726;2022-09-06T02:05:31;99904.97;;;17.42;100.00
7018;BME280;3549;42.162;24.726;2022-09-06T02:08:07;99861.16;;;16.94;100.00
7018;BME280;3549;42.162;24.726;2022-09-06T02:10:41;99822.03;;;16.36;100.00
7018;BME280;3549;42.162;24.726;2022-09-06T02:13:09;99899.34;;;16.88;100.00
7018;BME280;3549;42.162;24.726;2022-09-06T02:15:45;99785.28;;;16.31;100.00
7018;BME280;3549;42.162;24.726;2022-09-06T02:18:18;99889.19;;;16.91;100.00
7018;BME280;3549;42.162;24.726;2022-09-06T02:20:50;99901.88;;;16.57;100.00
7018;BME280;3549;42.162;24.726;2022-09-06T02:23:18;99901.56;;;16.46;100.00
7018;BME280;3549;42.162;24.726;2022-09-06T02:25:58;99894.31;;;16.32;100.00
7018;BME280;3549;42.162;24.726;2022-09-06T02:28:25;99918.41;;;16.40;100.00
7018;BME280;3549;42.162;24.726;2022-09-06T02:30:56;99906.06;;;16.25;100.00
7018;BME280;3549;42.162;24.726;2022-09-06T02:33:26;99863.63;;;16.01;100.00
7018;BME280;3549;42.162;24.726;2022-09-06T02:35:53;99790.31;;;15.68;100.00
7018;BME280;3549;42.162;24.726;2022-09-06T02:38:23;99750.31;;;15.69;100.00
7018;BME280;3549;42.162;24.726;2022-09-06T02:40:52;99678.53;;;15.30;100.00
7018;BME280;3549;42.162;24.726;2022-09-06T02:43:18;99701.78;;;15.39;100.00
7018;BME280;3549;42.162;24.726;2022-09-06T02:45:44;99621.91;;;14.84;100.00
7018;BME280;3549;42.162;24.726;2022-09-06T02:48:09;99892.75;;;16.65;100.00
7018;BME280;3549;42.162;24.726;2022-09-06T02:50:35;99868.34;;;16.46;100.00
7018;BME280;3549;42.162;24.726;2022-09-06T02:53:06;99770.16;;;15.77;100.00
7018;BME280;3549;42.162;24.726;2022-09-06T02:55:32;99889.34;;;16.36;100.00
7018;BME280;3549;42.162;24.726;2022-09-06T02:57:57;99831.41;;;16.06;100.00
7018;BME280;3549;42.162;24.726;2022-09-06T03:00:23;99878.09;;;16.30;100.00
7018;BME280;3549;42.162;24.726;2022-09-06T03:02:49;99853.09;;;16.20;100.00
7018;BME280;3549;42.162;24.726;2022-09-06T03:05:15;99585.84;;;14.43;100.00
7018;BME280;3549;42.162;24.726;2022-09-06T03:07:40;99911.19;;;16.27;100.00
7018;BME280;3549;42.162;24.726;2022-09-06T03:10:06;99933.19;;;15.93;100.00
7018;BME280;3549;42.162;24.726;2022-09-06T03:12:31;99809.84;;;15.14;100.00
7018;BME280;3549;42.162;24.726;2022-09-06T03:14:57;99664.66;;;14.39;100.00
7018;BME280;3549;42.162;24.726;2022-09-06T03:17:22;99355.34;;;12.70;100.00
7018;BME280;3549;42.162;24.726;2022-09-06T03:19:48;99779.00;;;15.07;100.00
7018;BME280;3549;42.162;24.726;2022-09-06T03:22:13;99648.31;;;14.32;100.00
7018;BME280;3549;42.162;24.726;2022-09-06T03:24:39;99829.69;;;15.48;100.00
7018;BME280;3549;42.162;24.726;2022-09-06T03:27:04;99800.06;;;15.26;100.00
7018;BME280;3549;42.162;24.726;2022-09-06T03:29:30;99852.56;;;15.47;100.00
7018;BME280;3549;42.162;24.726;2022-09-06T03:31:55;99605.19;;;13.88;100.00
7018;BME280;3549;42.162;24.726;2022-09-06T03:34:21;99925.94;;;15.79;100.00
7018;BME280;3549;42.162;24.726;2022-09-06T03:36:46;99418.22;;;12.76;100.00
7018;BME280;3549;42.162;24.726;2022-09-06T03:39:11;99779.72;;;15.03;100.00
7018;BME280;3549;42.162;24.726;2022-09-06T03:41:37;99660.13;;;14.55;100.00
7018;BME280;3549;42.162;24.726;2022-09-06T03:44:03;99631.97;;;14.27;100.00
7018;BME280;3549;42.162;24.726;2022-09-06T03:46:28;99614.47;;;14.11;100.00
7018;BME280;3549;42.162;24.726;2022-09-06T03:48:56;99605.81;;;14.06;100.00
7018;BME280;3549;42.162;24.726;2022-09-06T03:51:21;99858.84;;;15.56;100.00
7018;BME280;3549;42.162;24.726;2022-09-06T03:53:47;99787.00;;;15.17;100.00
7018;BME280;3549;42.162;24.726;2022-09-06T03:56:13;99704.53;;;14.38;100.00
7018;BME280;3549;42.162;24.726;2022-09-06T03:58:39;99935.56;;;15.87;100.00
7018;BME280;3549;42.162;24.726;2022-09-06T04:01:07;99929.41;;;15.54;100.00
7018;BME280;3549;42.162;24.726;2022-09-06T04:03:33;99581.66;;;13.44;100.00
7018;BME280;3549;42.162;24.726;2022-09-06T04:05:59;99480.59;;;12.46;100.00
7018;BME280;3549;42.162;24.726;2022-09-06T04:08:25;99311.38;;;11.56;100.00
7018;BME280;3549;42.162;24.726;2022-09-06T04:10:54;99462.91;;;12.71;100.00
7018;BME280;3549;42.162;24.726;2022-09-06T04:13:21;99953.16;;;15.78;100.00
7018;BME280;3549;42.162;24.726;2022-09-06T04:15:47;99951.63;;;15.85;100.00
7018;BME280;3549;42.162;24.726;2022-09-06T04:18:14;99948.94;;;15.80;100.00
7018;BME280;3549;42.162;24.726;2022-09-06T04:20:40;99639.47;;;13.74;100.00
7018;BME280;3549;42.162;24.726;2022-09-06T04:23:05;99491.13;;;12.78;100.00
7018;BME280;3549;42.162;24.726;2022-09-06T04:25:31;99612.09;;;13.67;100.00
7018;BME280;3549;42.162;24.726;2022-09-06T04:27:56;99408.25;;;12.58;100.00
7018;BME280;3549;42.162;24.726;2022-09-06T04:30:22;99833.16;;;15.25;100.00
7018;BME280;3549;42.162;24.726;2022-09-06T04:32:47;99689.13;;;14.34;100.00
7018;BME280;3549;42.162;24.726;2022-09-06T04:35:14;99881.91;;;15.59;100.00
7018;BME280;3549;42.162;24.726;2022-09-06T04:37:39;99754.06;;;14.97;100.00
7018;BME280;3549;42.162;24.726;2022-09-06T04:40:05;99800.81;;;15.49;100.00
7018;BME280;3549;42.162;24.726;2022-09-06T04:42:32;99902.00;;;16.04;100.00
7018;BME280;3549;42.162;24.726;2022-09-06T04:44:57;99845.97;;;15.80;100.00
7018;BME280;3549;42.162;24.726;2022-09-06T04:47:23;99662.44;;;14.74;100.00
7018;BME280;3549;42.162;24.726;2022-09-06T04:49:49;99778.56;;;15.47;100.00
7018;BME280;3549;42.162;24.726;2022-09-06T04:52:15;99348.81;;;13.02;100.00
7018;BME280;3549;42.162;24.726;2022-09-06T04:54:41;99776.38;;;15.57;100.00
7018;BME280;3549;42.162;24.726;2022-09-06T04:57:06;99856.56;;;16.22;100.00
7018;BME280;3549;42.162;24.726;2022-09-06T04:59:32;99875.66;;;16.34;100.00
7018;BME280;3549;42.162;24.726;2022-09-06T05:01:57;99466.16;;;13.90;100.00
7018;BME280;3549;42.162;24.726;2022-09-06T05:04:23;99878.00;;;16.27;100.00
7018;BME280;3549;42.162;24.726;2022-09-06T05:06:48;99711.56;;;15.25;100.00
7018;BME280;3549;42.162;24.726;2022-09-06T05:09:14;99724.03;;;15.43;100.00
7018;BME280;3549;42.162;24.726;2022-09-06T05:11:40;99738.16;;;15.32;100.00
7018;BME280;3549;42.162;24.726;2022-09-06T05:14:05;99666.78;;;14.78;100.00
7018;BME280;3549;42.162;24.726;2022-09-06T05:16:31;99819.00;;;15.61;100.00
7018;BME280;3549;42.162;24.726;2022-09-06T05:18:56;99816.28;;;15.83;100.00
7018;BME280;3549;42.162;24.726;2022-09-06T05:21:22;99792.03;;;15.69;100.00
7018;BME280;3549;42.162;24.726;2022-09-06T05:23:47;99723.72;;;15.32;100.00
7018;BME280;3549;42.162;24.726;2022-09-06T05:26:13;99934.88;;;16.49;100.00
7018;BME280;3549;42.162;24.726;2022-09-06T05:28:38;99944.22;;;16.77;100.00
7018;BME280;3549;42.162;24.726;2022-09-06T05:31:22;99937.13;;;16.98;100.00
7018;BME280;3549;42.162;24.726;2022-09-06T05:33:50;99852.53;;;16.30;100.00
7018;BME280;3549;42.162;24.726;2022-09-06T05:36:16;99948.75;;;16.87;100.00
7018;BME280;3549;42.162;24.726;2022-09-06T05:38:41;99458.94;;;14.03;100.00
7018;BME280;3549;42.162;24.726;2022-09-06T05:41:06;99730.06;;;15.73;100.00
7018;BME280;3549;42.162;24.726;2022-09-06T05:43:32;99614.75;;;15.00;100.00
7018;BME280;3549;42.162;24.726;2022-09-06T05:45:57;99946.56;;;17.01;100.00
7018;BME280;3549;42.162;24.726;2022-09-06T05:48:23;99905.50;;;16.64;100.00
7018;BME280;3549;42.162;24.726;2022-09-06T05:51:01;99656.50;;;15.32;100.00
7018;BME280;3549;42.162;24.726;2022-09-06T05:53:33;99524.25;;;14.56;100.00
7018;BME280;3549;42.162;24.726;2022-09-06T05:55:58;99752.91;;;15.99;100.00
7018;BME280;3549;42.162;24.726;2022-09-06T05:58:24;99948.16;;;17.29;100.00
7018;BME280;3549;42.162;24.726;2022-09-06T06:00:49;99941.53;;;17.37;100.00
7018;BME280;3549;42.162;24.726;2022-09-06T06:03:15;99843.13;;;17.24;100.00
7018;BME280;3549;42.162;24.726;2022-09-06T06:05:45;99815.53;;;17.47;100.00
7018;BME280;3549;42.162;24.726;2022-09-06T06:08:11;99574.31;;;16.06;100.00
7018;BME280;3549;42.162;24.726;2022-09-06T06:10:36;99529.34;;;16.13;100.00
7018;BME280;3549;42.162;24.726;2022-09-06T06:13:03;99863.97;;;18.14;100.00
7018;BME280;3549;42.162;24.726;2022-09-06T06:15:29;99794.84;;;18.17;100.00
7018;BME280;3549;42.162;24.726;2022-09-06T06:17:56;99820.28;;;18.48;99.08
7018;BME280;3549;42.162;24.726;2022-09-06T06:20:22;99930.91;;;18.68;100.00
7018;BME280;3549;42.162;24.726;2022-09-06T06:22:47;99729.56;;;17.58;100.00
7018;BME280;3549;42.162;24.726;2022-09-06T06:25:12;99821.97;;;18.48;98.17
7018;BME280;3549;42.162;24.726;2022-09-06T06:27:38;99835.22;;;18.72;96.43
7018;BME280;3549;42.162;24.726;2022-09-06T06:30:04;99946.94;;;19.48;95.27
7018;BME280;3549;42.162;24.726;2022-09-06T06:32:29;99941.16;;;19.11;97.91
7018;BME280;3549;42.162;24.726;2022-09-06T06:34:54;99947.09;;;19.55;94.86
7018;BME280;3549;42.162;24.726;2022-09-06T06:37:20;99721.22;;;18.55;91.54
7018;BME280;3549;42.162;24.726;2022-09-06T06:39:45;99892.75;;;19.34;92.79
7018;BME280;3549;42.162;24.726;2022-09-06T06:42:11;99806.19;;;18.73;94.39
7018;BME280;3549;42.162;24.726;2022-09-06T06:44:36;99630.34;;;17.91;92.52
7018;BME280;3549;42.162;24.726;2022-09-06T06:47:02;99676.13;;;18.18;92.09
7018;BME280;3549;42.162;24.726;2022-09-06T06:49:28;99652.91;;;18.58;89.22
7018;BME280;3549;42.162;24.726;2022-09-06T06:51:53;99939.22;;;20.63;87.96
7018;BME280;3549;42.162;24.726;2022-09-06T06:54:19;99924.84;;;20.14;89.51
7018;BME280;3549;42.162;24.726;2022-09-06T06:56:44;99930.47;;;20.47;88.62
7018;BME280;3549;42.162;24.726;2022-09-06T06:59:10;99930.84;;;20.78;84.27
7018;BME280;3549;42.162;24.726;2022-09-06T07:01:36;99788.59;;;20.14;80.98
7018;BME280;3549;42.162;24.726;2022-09-06T07:04:02;99898.28;;;20.83;80.20
7018;BME280;3549;42.162;24.726;2022-09-06T07:06:28;99875.22;;;20.92;78.69
7018;BME280;3549;42.162;24.726;2022-09-06T07:08:57;99678.78;;;20.01;77.50
7018;BME280;3549;42.162;24.726;2022-09-06T07:11:24;99938.84;;;21.97;75.43
7018;BME280;3549;42.162;24.726;2022-09-06T07:13:49;99819.63;;;21.09;75.11
7018;BME280;3549;42.162;24.726;2022-09-06T07:16:19;99931.56;;;21.49;75.32
7018;BME280;3549;42.162;24.726;2022-09-06T07:18:45;99724.69;;;19.69;77.64
7018;BME280;3549;42.162;24.726;2022-09-06T07:23:36;99537.19;;;18.39;77.63
7018;BME280;3549;42.162;24.726;2022-09-06T07:26:02;99931.31;;;21.20;76.79
7018;BME280;3549;42.162;24.726;2022-09-06T07:28:27;99794.75;;;21.12;73.32
7018;BME280;3549;42.162;24.726;2022-09-06T07:30:53;99656.88;;;20.39;72.36
7018;BME280;3549;42.162;24.726;2022-09-06T07:33:21;99825.47;;;20.93;74.36
7018;BME280;3549;42.162;24.726;2022-09-06T07:35:57;99769.75;;;20.98;72.82
7018;BME280;3549;42.162;24.726;2022-09-06T07:38:23;99938.88;;;22.06;72.63
7018;BME280;3549;42.162;24.726;2022-09-06T07:40:53;99532.19;;;19.92;71.62
7018;BME280;3549;42.162;24.726;2022-09-06T07:43:18;99700.56;;;21.48;69.47
7018;BME280;3549;42.162;24.726;2022-09-06T07:45:44;99929.00;;;22.94;69.52
7018;BME280;3549;42.162;24.726;2022-09-06T07:48:09;99842.69;;;22.25;69.28
7018;BME280;3549;42.162;24.726;2022-09-06T07:50:35;99766.09;;;22.01;68.62
7018;BME280;3549;42.162;24.726;2022-09-06T07:53:05;99868.72;;;22.95;67.57
7018;BME280;3549;42.162;24.726;2022-09-06T07:55:31;99929.09;;;23.60;66.18
7018;BME280;3549;42.162;24.726;2022-09-06T07:57:56;99835.16;;;23.31;64.79
7018;BME280;3549;42.162;24.726;2022-09-06T08:00:22;99930.69;;;24.34;63.62
7018;BME280;3549;42.162;24.726;2022-09-06T08:02:47;99776.59;;;22.65;65.16
7018;BME280;3549;42.162;24.726;2022-09-06T08:05:13;99786.00;;;22.40;67.24
7018;BME280;3549;42.162;24.726;2022-09-06T08:07:38;99924.78;;;23.38;67.06
7018;BME280;3549;42.162;24.726;2022-09-06T08:10:04;99923.00;;;24.05;64.49
7018;BME280;3549;42.162;24.726;2022-09-06T08:12:29;99920.19;;;24.70;62.21
7018;BME280;3549;42.162;24.726;2022-09-06T08:14:55;99864.28;;;24.39;60.09
7018;BME280;3549;42.162;24.726;2022-09-06T08:17:20;99921.19;;;24.46;60.87
7018;BME280;3549;42.162;24.726;2022-09-06T08:19:46;99503.91;;;21.85;61.42
7018;BME280;3549;42.162;24.726;2022-09-06T08:22:11;99896.28;;;24.12;61.26
7018;BME280;3549;42.162;24.726;2022-09-06T08:24:37;99911.63;;;24.56;60.73
7018;BME280;3549;42.162;24.726;2022-09-06T08:27:03;99829.09;;;23.68;60.33
7018;BME280;3549;42.162;24.726;2022-09-06T08:29:32;99684.47;;;23.20;60.28
7018;BME280;3549;42.162;24.726;2022-09-06T08:31:57;99565.72;;;22.99;58.14
7018;BME280;3549;42.162;24.726;2022-09-06T08:34:23;99921.88;;;24.85;58.76
7018;BME280;3549;42.162;24.726;2022-09-06T08:36:48;99797.06;;;24.21;58.73
7018;BME280;3549;42.162;24.726;2022-09-06T08:39:13;99429.16;;;22.18;59.04
7018;BME280;3549;42.162;24.726;2022-09-06T08:42:01;99429.75;;;22.85;56.89
7018;BME280;3549;42.162;24.726;2022-09-06T08:47:08;99651.25;;;24.28;56.15
7018;BME280;3549;42.162;24.726;2022-09-06T08:49:49;99883.88;;;24.84;57.79
7018;BME280;3549;42.162;24.726;2022-09-06T09:00:52;99718.50;;;25.33;54.60
7018;BME280;3549;42.162;24.726;2022-09-06T09:03:26;99867.31;;;26.05;55.98
7018;BME280;3549;42.162;24.726;2022-09-06T09:05:56;99864.13;;;26.56;54.20
7018;BME280;3549;42.162;24.726;2022-09-06T09:08:28;99884.47;;;26.88;53.66
7018;BME280;3549;42.162;24.726;2022-09-06T09:11:05;99771.94;;;25.46;54.57
7018;BME280;3549;42.162;24.726;2022-09-06T09:16:23;99833.13;;;25.68;54.84
7018;BME280;3549;42.162;24.726;2022-09-06T09:18:55;99869.59;;;26.32;53.81
7018;BME280;3549;42.162;24.726;2022-09-06T09:21:23;99857.91;;;26.65;53.12
7018;BME280;3549;42.162;24.726;2022-09-06T09:23:54;99621.31;;;24.92;52.51
7018;BME280;3549;42.162;24.726;2022-09-06T09:26:23;99621.91;;;24.26;55.39
7018;BME280;3549;42.162;24.726;2022-09-06T09:33:59;99805.63;;;26.89;51.98
7018;BME280;3549;42.162;24.726;2022-09-06T09:36:28;99849.25;;;27.22;51.31
7018;BME280;3549;42.162;24.726;2022-09-06T09:38:54;99681.88;;;26.28;51.00
7018;BME280;3549;42.162;24.726;2022-09-06T09:41:27;99421.81;;;24.97;50.60
7018;BME280;3549;42.162;24.726;2022-09-06T09:44:02;99740.44;;;27.03;50.39
7018;BME280;3549;42.162;24.726;2022-09-06T09:46:33;99755.53;;;27.30;49.77
7018;BME280;3549;42.162;24.726;2022-09-06T09:51:29;99828.63;;;27.12;50.95
7018;BME280;3549;42.162;24.726;2022-09-06T09:54:03;99827.00;;;27.06;51.47
7018;BME280;3549;42.162;24.726;2022-09-06T09:56:36;99660.53;;;26.07;51.13
7018;BME280;3549;42.162;24.726;2022-09-06T09:59:26;99449.44;;;24.96;51.45
7018;BME280;3549;42.162;24.726;2022-09-06T10:01:56;99737.56;;;26.64;51.31
7018;BME280;3549;42.162;24.726;2022-09-06T10:04:36;99822.03;;;27.44;50.22
7018;BME280;3549;42.162;24.726;2022-09-06T10:09:41;99824.00;;;27.78;49.08
7018;BME280;3549;42.162;24.726;2022-09-06T10:12:14;99584.28;;;26.15;49.79
7018;BME280;3549;42.162;24.726;2022-09-06T10:14:43;99497.00;;;25.55;50.30
7018;BME280;3549;42.162;24.726;2022-09-06T10:20:07;99655.41;;;26.04;50.34
7018;BME280;3549;42.162;24.726;2022-09-06T10:25:35;99797.97;;;26.78;49.32
7018;BME280;3549;42.162;24.726;2022-09-06T10:30:52;99735.19;;;27.06;49.60
7018;BME280;3549;42.162;24.726;2022-09-06T10:36:19;99711.66;;;27.12;47.51
7018;BME280;3549;42.162;24.726;2022-09-06T10:41:33;99782.50;;;27.24;47.90
7018;BME280;3549;42.162;24.726;2022-09-06T10:47:00;99759.69;;;26.89;48.78
7018;BME280;3549;42.162;24.726;2022-09-06T10:49:32;99771.56;;;27.06;50.08
7018;BME280;3549;42.162;24.726;2022-09-06T10:52:01;99587.59;;;26.25;50.04
7018;BME280;3549;42.162;24.726;2022-09-06T10:54:29;99771.19;;;27.25;49.09
7018;BME280;3549;42.162;24.726;2022-09-06T10:57:02;99765.88;;;27.33;49.39
7018;BME280;3549;42.162;24.726;2022-09-06T10:59:38;99616.97;;;26.76;49.55
7018;BME280;3549;42.162;24.726;2022-09-06T11:05:07;99760.63;;;27.82;47.97
7018;BME280;3549;42.162;24.726;2022-09-06T11:07:42;99725.41;;;27.17;47.33
7018;BME280;3549;42.162;24.726;2022-09-06T11:10:23;99694.47;;;27.05;47.52
7018;BME280;3549;42.162;24.726;2022-09-06T11:13:10;99756.59;;;27.18;47.06
7018;BME280;3549;42.162;24.726;2022-09-06T11:21:29;99647.03;;;26.42;47.69
7018;BME280;3549;42.162;24.726;2022-09-06T11:24:12;99716.56;;;26.76;47.78
7018;BME280;3549;42.162;24.726;2022-09-06T11:29:28;99705.13;;;26.34;47.82
7018;BME280;3549;42.162;24.726;2022-09-06T11:32:00;99746.03;;;26.77;46.67
7018;BME280;3549;42.162;24.726;2022-09-06T11:34:30;99734.63;;;27.36;45.69
7018;BME280;3549;42.162;24.726;2022-09-06T11:37:01;99454.44;;;26.20;44.45
7018;BME280;3549;42.162;24.726;2022-09-06T11:39:38;99736.16;;;27.90;44.77
7018;BME280;3549;42.162;24.726;2022-09-06T11:42:37;99739.66;;;28.67;42.91
7018;BME280;3549;42.162;24.726;2022-09-06T11:47:39;99737.53;;;29.49;41.36
7018;BME280;3549;42.162;24.726;2022-09-06T12:06:16;99707.44;;;29.04;41.63
7018;BME280;3549;42.162;24.726;2022-09-06T12:08:44;99688.81;;;29.50;40.08
7018;BME280;3549;42.162;24.726;2022-09-06T12:11:42;99699.16;;;29.22;39.90
7018;BME280;3549;42.162;24.726;2022-09-06T12:19:57;99697.94;;;30.77;36.22
7018;BME280;3549;42.162;24.726;2022-09-06T12:27:36;99665.06;;;31.44;35.64
7018;BME280;3549;42.162;24.726;2022-09-06T12:30:08;99657.84;;;31.74;34.46
7018;BME280;3549;42.162;24.726;2022-09-06T12:35:04;99593.56;;;31.88;32.76
7018;BME280;3549;42.162;24.726;2022-09-06T12:38:03;99684.91;;;33.03;32.88
7018;BME280;3549;42.162;24.726;2022-09-06T12:40:32;99671.56;;;33.09;32.91
7018;BME280;3549;42.162;24.726;2022-09-06T12:43:02;99671.50;;;33.10;33.20
7018;BME280;3549;42.162;24.726;2022-09-06T12:45:28;99662.94;;;33.07;33.15
7018;BME280;3549;42.162;24.726;2022-09-06T12:48:05;99657.31;;;33.35;32.84
7018;BME280;3549;42.162;24.726;2022-09-06T12:50:32;99659.41;;;32.86;33.42
7018;BME280;3549;42.162;24.726;2022-09-06T12:52:59;99644.59;;;32.65;33.32
7018;BME280;3549;42.162;24.726;2022-09-06T12:57:54;99650.16;;;32.98;33.24
7018;BME280;3549;42.162;24.726;2022-09-06T13:00:23;99647.59;;;33.16;33.33
7018;BME280;3549;42.162;24.726;2022-09-06T13:03:02;99636.31;;;33.91;31.78
7018;BME280;3549;42.162;24.726;2022-09-06T13:05:30;99537.00;;;33.05;32.01
7018;BME280;3549;42.162;24.726;2022-09-06T13:07:58;99636.88;;;33.97;31.15
7018;BME280;3549;42.162;24.726;2022-09-06T13:10:27;99441.13;;;33.17;30.26
7018;BME280;3549;42.162;24.726;2022-09-06T13:12:55;99254.75;;;31.89;30.53
7018;BME280;3549;42.162;24.726;2022-09-06T13:15:25;99330.25;;;30.74;32.10
7018;BME280;3549;42.162;24.726;2022-09-06T13:17:53;99606.91;;;32.88;31.44
7018;BME280;3549;42.162;24.726;2022-09-06T13:20:28;99634.63;;;33.71;31.15
7018;BME280;3549;42.162;24.726;2022-09-06T13:23:09;99541.09;;;33.86;30.04
7018;BME280;3549;42.162;24.726;2022-09-06T13:25:47;99501.69;;;34.37;29.89
7018;BME280;3549;42.162;24.726;2022-09-06T13:28:23;99605.31;;;35.02;29.47
7018;BME280;3549;42.162;24.726;2022-09-06T13:33:29;99622.72;;;34.18;31.04
7018;BME280;3549;42.162;24.726;2022-09-06T13:36:18;99563.06;;;34.87;29.49
7018;BME280;3549;42.162;24.726;2022-09-06T13:38:45;99522.41;;;34.93;29.13
7018;BME280;3549;42.162;24.726;2022-09-06T13:44:01;99560.63;;;33.24;32.51
7018;BME280;3549;42.162;24.726;2022-09-06T13:46:33;99612.44;;;33.20;33.04
7018;BME280;3549;42.162;24.726;2022-09-06T13:49:01;99600.69;;;33.29;33.61
7018;BME280;3549;42.162;24.726;2022-09-06T13:51:26;99565.75;;;33.27;33.34
7018;BME280;3549;42.162;24.726;2022-09-06T13:54:05;99600.53;;;32.93;34.35
7018;BME280;3549;42.162;24.726;2022-09-06T13:56:31;99518.59;;;31.41;35.03
7018;BME280;3549;42.162;24.726;2022-09-06T13:58:57;99565.72;;;30.45;37.48
7018;BME280;3549;42.162;24.726;2022-09-06T14:01:22;99527.50;;;29.35;38.51
7018;BME280;3549;42.162;24.726;2022-09-06T14:03:48;99586.72;;;29.31;40.47
7018;BME280;3549;42.162;24.726;2022-09-06T14:06:14;99551.50;;;28.86;40.51
7018;BME280;3549;42.162;24.726;2022-09-06T14:08:40;99523.00;;;28.47;41.11
7018;BME280;3549;42.162;24.726;2022-09-06T14:11:07;99579.78;;;28.99;40.98
7018;BME280;3549;42.162;24.726;2022-09-06T14:13:32;99139.06;;;26.39;40.85
7018;BME280;3549;42.162;24.726;2022-09-06T14:15:58;99580.03;;;29.21;40.65
7018;BME280;3549;42.162;24.726;2022-09-06T14:18:24;99485.16;;;28.66;40.27
7018;BME280;3549;42.162;24.726;2022-09-06T14:20:53;99583.81;;;29.11;40.65
7018;BME280;3549;42.162;24.726;2022-09-06T14:23:20;99589.31;;;29.33;40.09
7018;BME280;3549;42.162;24.726;2022-09-06T14:25:46;99362.53;;;28.11;39.91
7018;BME280;3549;42.162;24.726;2022-09-06T14:28:12;99507.81;;;28.94;39.51
7018;BME280;3549;42.162;24.726;2022-09-06T14:30:37;99542.88;;;28.84;39.73
7018;BME280;3549;42.162;24.726;2022-09-06T14:33:03;99544.00;;;28.74;40.02
7018;BME280;3549;42.162;24.726;2022-09-06T14:35:32;99580.69;;;28.98;40.68
7018;BME280;3549;42.162;24.726;2022-09-06T14:37:58;99421.44;;;28.15;39.75
7018;BME280;3549;42.162;24.726;2022-09-06T14:40:24;99584.50;;;28.87;40.07
7018;BME280;3549;42.162;24.726;2022-09-06T14:42:49;99396.69;;;28.31;38.43
7018;BME280;3549;42.162;24.726;2022-09-06T14:45:15;99548.44;;;29.01;38.71
7018;BME280;3549;42.162;24.726;2022-09-06T14:47:41;99583.69;;;29.45;38.99
7018;BME280;3549;42.162;24.726;2022-09-06T14:50:06;99541.25;;;29.10;39.35
7018;BME280;3549;42.162;24.726;2022-09-06T14:52:32;99479.28;;;28.58;39.30
7018;BME280;3549;42.162;24.726;2022-09-06T14:54:57;99397.97;;;27.83;40.22
7018;BME280;3549;42.162;24.726;2022-09-06T14:57:23;99532.28;;;29.19;38.86
7018;BME280;3549;42.162;24.726;2022-09-06T14:59:49;99433.16;;;28.31;38.88
7018;BME280;3549;42.162;24.726;2022-09-06T15:02:14;99570.94;;;28.74;39.81
7018;BME280;3549;42.162;24.726;2022-09-06T15:04:39;99460.06;;;27.98;40.35
7018;BME280;3549;42.162;24.726;2022-09-06T15:07:06;99562.56;;;28.29;40.85
7018;BME280;3549;42.162;24.726;2022-09-06T15:09:32;99340.22;;;26.61;41.87
7018;BME280;3549;42.162;24.726;2022-09-06T15:11:58;99458.44;;;27.20;42.40